sensor_id;sensor_type;location;lat;lon;timestamp;pressure;altitude;pressure_sealevel;temperature;humidity
46942;BME280;32676;52.630;4.896;2023-08-21T00:02:02;100245.13;;;17.62;79.92
46942;BME280;32676;52.630;4.896;2023-08-21T00:04:31;100232.06;;;17.59;79.84
46942;BME280;32676;52.630;4.896;2023-08-21T00:06:58;100211.13;;;17.55;79.35
46942;BME280;32676;52.630;4.896;2023-08-21T00:09:25;100179.81;;;17.47;79.39
46942;BME280;32676;52.630;4.896;2023-08-21T00:11:51;100153.69;;;17.41;78.83
46942;BME280;32676;52.630;4.896;2023-08-21T00:14:17;100150.28;;;17.39;79.01
46942;BME280;32676;52.630;4.896;2023-08-21T00:16:44;100148.59;;;17.38;79.00
46942;BME280;32676;52.630;4.896;2023-08-21T00:19:10;100142.44;;;17.37;79.13
46942;BME280;32676;52.630;4.896;2023-08-21T00:21:38;100133.84;;;17.34;78.83
46942;BME280;32676;52.630;4.896;2023-08-21T00:24:04;100127.78;;;17.32;79.00
46942;BME280;32676;52.630;4.896;2023-08-21T00:26:30;100113.03;;;17.27;79.16
46942;BME280;32676;52.630;4.896;2023-08-21T00:28:57;100093.81;;;17.24;79.03
46942;BME280;32676;52.630;4.896;2023-08-21T00:31:26;100094.06;;;17.21;79.29
46942;BME280;32676;52.630;4.896;2023-08-21T00:33:52;100095.84;;;17.20;79.62
46942;BME280;32676;52.630;4.896;2023-08-21T00:36:19;100088.84;;;17.19;79.69
46942;BME280;32676;52.630;4.896;2023-08-21T00:38:47;100098.50;;;17.20;79.92
46942;BME280;32676;52.630;4.896;2023-08-21T00:41:13;100110.81;;;17.21;79.76
46942;BME280;32676;52.630;4.896;2023-08-21T00:43:39;100125.56;;;17.25;80.07
46942;BME280;32676;52.630;4.896;2023-08-21T00:46:06;100143.06;;;17.28;80.17
46942;BME280;32676;52.630;4.896;2023-08-21T00:48:32;100153.50;;;17.31;79.99
46942;BME280;32676;52.630;4.896;2023-08-21T00:50:59;100164.22;;;17.30;80.31
46942;BME280;32676;52.630;4.896;2023-08-21T00:53:25;100164.94;;;17.32;80.16
46942;BME280;32676;52.630;4.896;2023-08-21T00:55:53;100154.56;;;17.29;79.99
46942;BME280;32676;52.630;4.896;2023-08-21T00:58:20;100161.66;;;17.28;79.92
46942;BME280;32676;52.630;4.896;2023-08-21T01:00:46;100161.81;;;17.26;79.89
46942;BME280;32676;52.630;4.896;2023-08-21T01:03:15;100146.09;;;17.23;79.93
46942;BME280;32676;52.630;4.896;2023-08-21T01:05:41;100149.69;;;17.22;80.04
46942;BME280;32676;52.630;4.896;2023-08-21T01:08:09;100144.38;;;17.22;80.44
46942;BME280;32676;52.630;4.896;2023-08-21T01:10:39;100150.56;;;17.23;80.32
46942;BME280;32676;52.630;4.896;2023-08-21T01:13:11;100162.00;;;17.23;80.17
46942;BME280;32676;52.630;4.896;2023-08-21T01:15:41;100150.66;;;17.21;80.07
46942;BME280;32676;52.630;4.896;2023-08-21T01:18:08;100150.75;;;17.20;79.80
46942;BME280;32676;52.630;4.896;2023-08-21T01:20:35;100135.91;;;17.17;79.67
46942;BME280;32676;52.630;4.896;2023-08-21T01:23:03;100119.44;;;17.12;79.70
46942;BME280;32676;52.630;4.896;2023-08-21T01:25:32;100097.69;;;17.07;79.93
46942;BME280;32676;52.630;4.896;2023-08-21T01:27:58;100084.72;;;17.02;79.99
46942;BME280;32676;52.630;4.896;2023-08-21T01:30:24;100067.53;;;16.95;80.45
46942;BME280;32676;52.630;4.896;2023-08-21T01:32:53;100071.81;;;16.98;80.41
46942;BME280;32676;52.630;4.896;2023-08-21T01:35:23;100081.34;;;17.00;80.43
46942;BME280;32676;52.630;4.896;2023-08-21T01:37:50;100093.66;;;17.01;80.16
46942;BME280;32676;52.630;4.896;2023-08-21T01:40:19;100092.81;;;17.01;80.20
46942;BME280;32676;52.630;4.896;2023-08-21T01:42:47;100098.13;;;17.01;80.18
46942;BME280;32676;52.630;4.896;2023-08-21T01:45:14;100105.13;;;17.02;80.26
46942;BME280;32676;52.630;4.896;2023-08-21T01:47:40;100110.44;;;17.02;80.30
46942;BME280;32676;52.630;4.896;2023-08-21T01:50:07;100124.34;;;17.05;80.23
46942;BME280;32676;52.630;4.896;2023-08-21T01:52:34;100123.50;;;17.05;80.20
46942;BME280;32676;52.630;4.896;2023-08-21T01:55:00;100122.75;;;17.03;79.97
46942;BME280;32676;52.630;4.896;2023-08-21T01:57:27;100115.75;;;17.02;79.90
46942;BME280;32676;52.630;4.896;2023-08-21T01:59:54;100104.50;;;16.98;79.86
46942;BME280;32676;52.630;4.896;2023-08-21T02:02:21;100084.56;;;16.93;80.08
46942;BME280;32676;52.630;4.896;2023-08-21T02:04:47;100058.47;;;16.86;80.15
46942;BME280;32676;52.630;4.896;2023-08-21T02:07:14;100045.47;;;16.82;80.81
46942;BME280;32676;52.630;4.896;2023-08-21T02:09:41;100029.91;;;16.77;81.00
46942;BME280;32676;52.630;4.896;2023-08-21T02:12:07;100002.84;;;16.72;81.09
46942;BME280;32676;52.630;4.896;2023-08-21T02:14:33;99986.41;;;16.67;81.00
46942;BME280;32676;52.630;4.896;2023-08-21T02:17:01;99971.66;;;16.63;81.12
46942;BME280;32676;52.630;4.896;2023-08-21T02:19:29;99979.50;;;16.64;81.11
46942;BME280;32676;52.630;4.896;2023-08-21T02:21:58;99986.50;;;16.65;81.21
46942;BME280;32676;52.630;4.896;2023-08-21T02:24:24;99986.72;;;16.62;81.01
46942;BME280;32676;52.630;4.896;2023-08-21T02:26:51;99959.78;;;16.56;80.75
46942;BME280;32676;52.630;4.896;2023-08-21T02:29:17;99939.72;;;16.51;80.21
46942;BME280;32676;52.630;4.896;2023-08-21T02:31:43;99932.00;;;16.48;80.64
46942;BME280;32676;52.630;4.896;2023-08-21T02:34:11;99912.94;;;16.43;80.93
46942;BME280;32676;52.630;4.896;2023-08-21T02:36:37;99890.25;;;16.39;81.13
46942;BME280;32676;52.630;4.896;2023-08-21T02:39:04;99882.50;;;16.36;81.29
46942;BME280;32676;52.630;4.896;2023-08-21T02:41:30;99867.78;;;16.32;81.47
46942;BME280;32676;52.630;4.896;2023-08-21T02:43:57;99858.22;;;16.29;81.33
46942;BME280;32676;52.630;4.896;2023-08-21T02:46:23;99854.00;;;16.27;81.47
46942;BME280;32676;52.630;4.896;2023-08-21T02:48:49;99847.00;;;16.26;81.52
46942;BME280;32676;52.630;4.896;2023-08-21T02:51:17;99843.63;;;16.24;81.40
46942;BME280;32676;52.630;4.896;2023-08-21T02:53:44;99848.91;;;16.24;81.11
46942;BME280;32676;52.630;4.896;2023-08-21T02:56:10;99851.56;;;16.24;81.41
46942;BME280;32676;52.630;4.896;2023-08-21T02:58:36;99866.41;;;16.26;81.46
46942;BME280;32676;52.630;4.896;2023-08-21T03:01:03;99860.25;;;16.26;81.22
46942;BME280;32676;52.630;4.896;2023-08-21T03:03:29;99856.97;;;16.22;81.32
46942;BME280;32676;52.630;4.896;2023-08-21T03:05:57;99849.13;;;16.21;81.29
46942;BME280;32676;52.630;4.896;2023-08-21T03:08:25;99834.41;;;16.17;80.95
46942;BME280;32676;52.630;4.896;2023-08-21T03:10:51;99827.53;;;16.14;80.80
46942;BME280;32676;52.630;4.896;2023-08-21T03:13:18;99817.97;;;16.11;80.47
46942;BME280;32676;52.630;4.896;2023-08-21T03:15:44;99804.25;;;16.06;80.87
46942;BME280;32676;52.630;4.896;2023-08-21T03:18:11;99781.53;;;16.02;80.90
46942;BME280;32676;52.630;4.896;2023-08-21T03:20:37;99768.63;;;15.98;81.03
46942;BME280;32676;52.630;4.896;2023-08-21T03:23:03;99773.09;;;15.97;81.47
46942;BME280;32676;52.630;4.896;2023-08-21T03:25:31;99771.41;;;15.96;81.66
46942;BME280;32676;52.630;4.896;2023-08-21T03:27:57;99782.63;;;16.00;81.51
46942;BME280;32676;52.630;4.896;2023-08-21T03:30:24;99800.09;;;16.02;81.77
46942;BME280;32676;52.630;4.896;2023-08-21T03:32:50;99790.47;;;16.01;81.82
46942;BME280;32676;52.630;4.896;2023-08-21T03:35:16;99782.00;;;15.96;80.84
46942;BME280;32676;52.630;4.896;2023-08-21T03:37:43;99769.94;;;15.92;80.14
46942;BME280;32676;52.630;4.896;2023-08-21T03:40:09;99738.56;;;15.86;80.40
46942;BME280;32676;52.630;4.896;2023-08-21T03:42:37;99725.66;;;15.81;80.40
46942;BME280;32676;52.630;4.896;2023-08-21T03:45:04;99707.44;;;15.77;80.49
46942;BME280;32676;52.630;4.896;2023-08-21T03:47:30;99699.69;;;15.73;80.94
46942;BME280;32676;52.630;4.896;2023-08-21T03:49:57;99692.81;;;15.71;80.95
46942;BME280;32676;52.630;4.896;2023-08-21T03:52:23;99684.97;;;15.69;81.19
46942;BME280;32676;52.630;4.896;2023-08-21T03:54:49;99680.75;;;15.67;81.20
46942;BME280;32676;52.630;4.896;2023-08-21T03:57:16;99674.63;;;15.66;81.34
46942;BME280;32676;52.630;4.896;2023-08-21T03:59:43;99680.84;;;15.65;81.39
46942;BME280;32676;52.630;4.896;2023-08-21T04:02:10;99676.50;;;15.64;81.67
46942;BME280;32676;52.630;4.896;2023-08-21T04:04:36;99691.34;;;15.67;81.86
46942;BME280;32676;52.630;4.896;2023-08-21T04:07:02;99704.47;;;15.68;82.09
46942;BME280;32676;52.630;4.896;2023-08-21T04:09:29;99715.81;;;15.70;81.81
46942;BME280;32676;52.630;4.896;2023-08-21T04:11:55;99730.53;;;15.74;82.08
46942;BME280;32676;52.630;4.896;2023-08-21T04:14:21;99746.22;;;15.78;82.23
46942;BME280;32676;52.630;4.896;2023-08-21T04:16:49;99760.22;;;15.80;82.08
46942;BME280;32676;52.630;4.896;2023-08-21T04:19:15;99775.91;;;15.83;82.11
46942;BME280;32676;52.630;4.896;2023-08-21T04:21:41;99786.25;;;15.86;82.02
46942;BME280;32676;52.630;4.896;2023-08-21T04:24:08;99802.03;;;15.87;81.85
46942;BME280;32676;52.630;4.896;2023-08-21T04:26:34;99815.06;;;15.90;81.75
46942;BME280;32676;52.630;4.896;2023-08-21T04:29:00;99826.50;;;15.91;81.81
46942;BME280;32676;52.630;4.896;2023-08-21T04:31:27;99826.50;;;15.91;81.68
46942;BME280;32676;52.630;4.896;2023-08-21T04:33:54;99829.16;;;15.91;82.03
46942;BME280;32676;52.630;4.896;2023-08-21T04:36:21;99824.84;;;15.90;81.80
46942;BME280;32676;52.630;4.896;2023-08-21T04:38:47;99835.19;;;15.93;82.04
46942;BME280;32676;52.630;4.896;2023-08-21T04:41:13;99830.13;;;15.90;82.20
46942;BME280;32676;52.630;4.896;2023-08-21T04:43:40;99843.25;;;15.91;82.35
46942;BME280;32676;52.630;4.896;2023-08-21T04:46:06;99842.41;;;15.91;82.40
46942;BME280;32676;52.630;4.896;2023-08-21T04:48:32;99849.41;;;15.92;82.11
46942;BME280;32676;52.630;4.896;2023-08-21T04:51:00;99852.06;;;15.92;82.09
46942;BME280;32676;52.630;4.896;2023-08-21T04:53:26;99861.69;;;15.93;82.08
46942;BME280;32676;52.630;4.896;2023-08-21T04:55:54;99870.38;;;15.95;82.14
46942;BME280;32676;52.630;4.896;2023-08-21T04:58:20;99879.09;;;15.97;82.01
46942;BME280;32676;52.630;4.896;2023-08-21T05:00:47;99903.44;;;16.02;82.08
46942;BME280;32676;52.630;4.896;2023-08-21T05:03:13;99920.06;;;16.04;81.85
46942;BME280;32676;52.630;4.896;2023-08-21T05:05:39;99925.19;;;16.07;81.97
46942;BME280;32676;52.630;4.896;2023-08-21T05:08:07;99941.81;;;16.09;81.98
46942;BME280;32676;52.630;4.896;2023-08-21T05:10:33;99949.66;;;16.11;81.68
46942;BME280;32676;52.630;4.896;2023-08-21T05:13:00;99969.81;;;16.14;81.63
46942;BME280;32676;52.630;4.896;2023-08-21T05:15:26;99985.50;;;16.17;81.21
46942;BME280;32676;52.630;4.896;2023-08-21T05:17:52;99999.47;;;16.19;81.35
46942;BME280;32676;52.630;4.896;2023-08-21T05:20:19;100015.19;;;16.22;81.31
46942;BME280;32676;52.630;4.896;2023-08-21T05:22:45;100030.88;;;16.25;81.08
46942;BME280;32676;52.630;4.896;2023-08-21T05:25:13;100046.56;;;16.28;81.36
46942;BME280;32676;52.630;4.896;2023-08-21T05:27:40;100061.44;;;16.30;81.23
46942;BME280;32676;52.630;4.896;2023-08-21T05:30:07;100084.13;;;16.35;81.38
46942;BME280;32676;52.630;4.896;2023-08-21T05:32:35;100109.38;;;16.40;81.36
46942;BME280;32676;52.630;4.896;2023-08-21T05:35:01;100128.47;;;16.45;81.59
46942;BME280;32676;52.630;4.896;2023-08-21T05:37:28;100158.19;;;16.50;81.31
46942;BME280;32676;52.630;4.896;2023-08-21T05:39:55;100174.75;;;16.54;81.36
46942;BME280;32676;52.630;4.896;2023-08-21T05:42:23;100191.28;;;16.58;81.46
46942;BME280;32676;52.630;4.896;2023-08-21T05:44:49;100207.00;;;16.61;81.44
46942;BME280;32676;52.630;4.896;2023-08-21T05:47:15;100228.84;;;16.64;81.41
46942;BME280;32676;52.630;4.896;2023-08-21T05:49:42;100252.44;;;16.69;81.31
46942;BME280;32676;52.630;4.896;2023-08-21T05:52:08;100277.69;;;16.75;81.00
46942;BME280;32676;52.630;4.896;2023-08-21T05:54:35;100294.25;;;16.78;81.19
46942;BME280;32676;52.630;4.896;2023-08-21T05:57:01;100325.72;;;16.84;81.19
46942;BME280;32676;52.630;4.896;2023-08-21T05:59:29;100358.84;;;16.92;81.01
46942;BME280;32676;52.630;4.896;2023-08-21T06:01:55;100405.91;;;17.02;80.99
46942;BME280;32676;52.630;4.896;2023-08-21T06:04:22;100439.94;;;17.10;80.93
46942;BME280;32676;52.630;4.896;2023-08-21T06:06:48;100489.78;;;17.19;80.81
46942;BME280;32676;52.630;4.896;2023-08-21T06:09:15;100529.97;;;17.27;80.64
46942;BME280;32676;52.630;4.896;2023-08-21T06:11:42;100573.56;;;17.38;80.68
46942;BME280;32676;52.630;4.896;2023-08-21T06:14:08;100628.56;;;17.50;80.33
46942;BME280;32676;52.630;4.896;2023-08-21T06:16:36;100674.81;;;17.60;80.30
46942;BME280;32676;52.630;4.896;2023-08-21T06:19:03;100734.22;;;17.74;79.95
46942;BME280;32676;52.630;4.896;2023-08-21T06:21:29;100785.09;;;17.82;79.89
46942;BME280;32676;52.630;4.896;2023-08-21T06:23:55;100844.44;;;17.97;79.91
46942;BME280;32676;52.630;4.896;2023-08-21T06:26:21;100905.66;;;18.10;79.87
46942;BME280;32676;52.630;4.896;2023-08-21T06:28:48;100951.09;;;18.21;80.12
46942;BME280;32676;52.630;4.896;2023-08-21T06:31:16;101007.03;;;18.34;80.08
46942;BME280;32676;52.630;4.896;2023-08-21T06:33:43;101066.63;;;18.46;79.80
46942;BME280;32676;52.630;4.896;2023-08-21T06:36:09;101119.09;;;18.58;79.91
46942;BME280;32676;52.630;4.896;2023-08-21T06:38:36;101171.69;;;18.69;79.25
46942;BME280;32676;52.630;4.896;2023-08-21T06:41:02;101224.28;;;18.79;79.01
46942;BME280;32676;52.630;4.896;2023-08-21T06:43:28;101277.69;;;18.92;79.00
46942;BME280;32676;52.630;4.896;2023-08-21T06:45:55;101332.97;;;19.03;78.85
46942;BME280;32676;52.630;4.896;2023-08-21T06:48:21;101367.97;;;19.11;78.59
46942;BME280;32676;52.630;4.896;2023-08-21T06:50:49;101428.53;;;19.24;78.63
46942;BME280;32676;52.630;4.896;2023-08-21T06:53:15;101464.53;;;19.31;78.84
46942;BME280;32676;52.630;4.896;2023-08-21T06:55:44;101516.34;;;19.41;78.41
46942;BME280;32676;52.630;4.896;2023-08-21T06:58:10;101562.84;;;19.51;78.43
46942;BME280;32676;52.630;4.896;2023-08-21T07:00:36;101618.03;;;19.65;77.98
46942;BME280;32676;52.630;4.896;2023-08-21T07:03:03;101659.34;;;19.74;77.33
46942;BME280;32676;52.630;4.896;2023-08-21T07:05:32;101690.97;;;19.80;77.17
46942;BME280;32676;52.630;4.896;2023-08-21T07:08:01;101719.88;;;19.88;77.13
46942;BME280;32676;52.630;4.896;2023-08-21T07:10:28;101772.63;;;19.99;77.43
46942;BME280;32676;52.630;4.896;2023-08-21T07:12:55;101815.75;;;20.07;77.41
46942;BME280;32676;52.630;4.896;2023-08-21T07:15:21;101859.63;;;20.17;77.59
46942;BME280;32676;52.630;4.896;2023-08-21T07:17:47;101908.13;;;20.25;77.36
46942;BME280;32676;52.630;4.896;2023-08-21T07:20:14;101934.28;;;20.35;77.47
46942;BME280;32676;52.630;4.896;2023-08-21T07:22:40;101967.78;;;20.40;77.25
46942;BME280;32676;52.630;4.896;2023-08-21T07:25:08;102010.84;;;20.50;77.33
46942;BME280;32676;52.630;4.896;2023-08-21T07:27:34;102037.25;;;20.56;77.65
46942;BME280;32676;52.630;4.896;2023-08-21T07:30:02;102072.41;;;20.64;77.11
46942;BME280;32676;52.630;4.896;2023-08-21T07:32:30;102107.75;;;20.69;77.08
46942;BME280;32676;52.630;4.896;2023-08-21T07:34:56;102144.66;;;20.79;77.03
46942;BME280;32676;52.630;4.896;2023-08-21T07:37:22;102185.19;;;20.87;77.35
46942;BME280;32676;52.630;4.896;2023-08-21T07:39:49;102221.31;;;20.94;77.37
46942;BME280;32676;52.630;4.896;2023-08-21T07:42:17;102259.19;;;21.02;77.46
46942;BME280;32676;52.630;4.896;2023-08-21T07:44:44;102294.41;;;21.11;77.13
46942;BME280;32676;52.630;4.896;2023-08-21T07:47:10;102325.28;;;21.16;77.19
46942;BME280;32676;52.630;4.896;2023-08-21T07:49:36;102368.41;;;21.26;76.58
46942;BME280;32676;52.630;4.896;2023-08-21T07:52:03;102395.72;;;21.33;76.66
46942;BME280;32676;52.630;4.896;2023-08-21T07:54:29;102426.63;;;21.38;76.66
46942;BME280;32676;52.630;4.896;2023-08-21T07:56:56;102461.00;;;21.46;76.10
46942;BME280;32676;52.630;4.896;2023-08-21T07:59:23;102496.25;;;21.54;76.63
46942;BME280;32676;52.630;4.896;2023-08-21T08:01:50;102535.97;;;21.62;76.61
46942;BME280;32676;52.630;4.896;2023-08-21T08:04:16;102571.22;;;21.70;76.79
46942;BME280;32676;52.630;4.896;2023-08-21T08:06:42;102608.22;;;21.79;76.86
46942;BME280;32676;52.630;4.896;2023-08-21T08:09:09;102661.28;;;21.89;76.70
46942;BME280;32676;52.630;4.896;2023-08-21T08:11:35;102697.41;;;21.97;75.41
46942;BME280;32676;52.630;4.896;2023-08-21T08:14:02;102723.88;;;22.03;75.02
46942;BME280;32676;52.630;4.896;2023-08-21T08:16:29;102749.47;;;22.09;74.78
46942;BME280;32676;52.630;4.896;2023-08-21T08:18:56;102784.75;;;22.17;74.40
46942;BME280;32676;52.630;4.896;2023-08-21T08:21:23;102824.56;;;22.25;73.81
46942;BME280;32676;52.630;4.896;2023-08-21T08:23:49;102857.13;;;22.35;73.34
46942;BME280;32676;52.630;4.896;2023-08-21T08:26:16;102892.47;;;22.43;73.69
46942;BME280;32676;52.630;4.896;2023-08-21T08:28:43;102923.44;;;22.49;73.58
46942;BME280;32676;52.630;4.896;2023-08-21T08:31:13;102946.38;;;22.54;73.44
46942;BME280;32676;52.630;4.896;2023-08-21T08:33:41;102991.47;;;22.64;73.53
46942;BME280;32676;52.630;4.896;2023-08-21T08:36:08;103026.81;;;22.72;73.22
46942;BME280;32676;52.630;4.896;2023-08-21T08:38:34;103042.69;;;22.76;72.79
46942;BME280;32676;52.630;4.896;2023-08-21T08:41:02;103060.34;;;22.80;72.99
46942;BME280;32676;52.630;4.896;2023-08-21T08:43:28;103071.00;;;22.82;71.95
46942;BME280;32676;52.630;4.896;2023-08-21T08:45:56;103102.72;;;22.91;71.97
46942;BME280;32676;52.630;4.896;2023-08-21T08:48:24;103139.03;;;22.98;72.17
46942;BME280;32676;52.630;4.896;2023-08-21T08:50:53;103158.41;;;23.05;71.55
46942;BME280;32676;52.630;4.896;2023-08-21T08:53:19;103200.16;;;23.11;72.05
46942;BME280;32676;52.630;4.896;2023-08-21T08:55:47;103212.47;;;23.15;71.83
46942;BME280;32676;52.630;4.896;2023-08-21T08:58:14;103239.00;;;23.21;70.49
46942;BME280;32676;52.630;4.896;2023-08-21T09:00:41;103265.56;;;23.27;69.95
46942;BME280;32676;52.630;4.896;2023-08-21T09:03:07;103277.88;;;23.31;70.08
46942;BME280;32676;52.630;4.896;2023-08-21T09:05:35;103306.16;;;23.38;70.30
46942;BME280;32676;52.630;4.896;2023-08-21T09:08:03;103339.81;;;23.46;70.69
46942;BME280;32676;52.630;4.896;2023-08-21T09:10:30;103379.63;;;23.55;70.40
46942;BME280;32676;52.630;4.896;2023-08-21T09:12:57;103395.44;;;23.61;69.93
46942;BME280;32676;52.630;4.896;2023-08-21T09:15:27;103392.75;;;23.61;69.14
46942;BME280;32676;52.630;4.896;2023-08-21T09:17:53;103415.84;;;23.65;68.91
46942;BME280;32676;52.630;4.896;2023-08-21T09:20:20;103430.00;;;23.69;68.26
46942;BME280;32676;52.630;4.896;2023-08-21T09:22:51;103452.16;;;23.74;67.71
46942;BME280;32676;52.630;4.896;2023-08-21T09:25:20;103464.47;;;23.78;67.50
46942;BME280;32676;52.630;4.896;2023-08-21T09:27:47;103490.22;;;23.84;66.90
46942;BME280;32676;52.630;4.896;2023-08-21T09:30:17;103524.69;;;23.93;66.64
46942;BME280;32676;52.630;4.896;2023-08-21T09:32:53;103542.41;;;23.97;66.43
46942;BME280;32676;52.630;4.896;2023-08-21T09:35:20;103567.25;;;24.02;66.07
46942;BME280;32676;52.630;4.896;2023-08-21T09:37:47;103592.88;;;24.09;66.75
46942;BME280;32676;52.630;4.896;2023-08-21T09:40:14;103598.13;;;24.12;65.65
46942;BME280;32676;52.630;4.896;2023-08-21T09:42:42;103608.72;;;24.15;64.82
46942;BME280;32676;52.630;4.896;2023-08-21T09:45:08;103622.03;;;24.19;65.50
46942;BME280;32676;52.630;4.896;2023-08-21T09:47:35;103659.28;;;24.26;65.62
46942;BME280;32676;52.630;4.896;2023-08-21T09:50:01;103685.00;;;24.32;65.58
46942;BME280;32676;52.630;4.896;2023-08-21T09:52:29;103715.13;;;24.40;65.51
46942;BME280;32676;52.630;4.896;2023-08-21T09:54:56;103729.22;;;24.45;63.96
46942;BME280;32676;52.630;4.896;2023-08-21T09:57:23;103747.81;;;24.50;63.19
46942;BME280;32676;52.630;4.896;2023-08-21T09:59:52;103775.34;;;24.57;63.38
46942;BME280;32676;52.630;4.896;2023-08-21T10:02:19;103800.22;;;24.62;62.97
46942;BME280;32676;52.630;4.896;2023-08-21T10:04:46;103817.81;;;24.69;63.18
46942;BME280;32676;52.630;4.896;2023-08-21T10:07:14;103818.69;;;24.69;61.89
46942;BME280;32676;52.630;4.896;2023-08-21T10:09:42;103829.25;;;24.74;61.68
46942;BME280;32676;52.630;4.896;2023-08-21T10:12:09;103848.81;;;24.78;62.14
46942;BME280;32676;52.630;4.896;2023-08-21T10:14:36;103843.34;;;24.79;60.49
46942;BME280;32676;52.630;4.896;2023-08-21T10:17:04;103843.28;;;24.81;60.40
46942;BME280;32676;52.630;4.896;2023-08-21T10:19:32;103846.78;;;24.83;60.45
46942;BME280;32676;52.630;4.896;2023-08-21T10:21:58;103849.41;;;24.84;61.10
46942;BME280;32676;52.630;4.896;2023-08-21T10:24:28;103861.75;;;24.88;60.74
46942;BME280;32676;52.630;4.896;2023-08-21T10:26:58;103868.78;;;24.93;60.22
46942;BME280;32676;52.630;4.896;2023-08-21T10:29:24;103879.38;;;24.96;58.90
46942;BME280;32676;52.630;4.896;2023-08-21T10:31:58;103861.50;;;24.95;58.81
46942;BME280;32676;52.630;4.896;2023-08-21T10:34:26;103836.63;;;24.89;58.77
46942;BME280;32676;52.630;4.896;2023-08-21T10:37:06;103840.97;;;24.92;58.97
46942;BME280;32676;52.630;4.896;2023-08-21T10:39:34;103851.59;;;24.95;58.43
46942;BME280;32676;52.630;4.896;2023-08-21T10:42:04;103848.84;;;24.97;59.62
46942;BME280;32676;52.630;4.896;2023-08-21T10:44:34;103856.00;;;24.98;59.35
46942;BME280;32676;52.630;4.896;2023-08-21T10:47:12;103862.97;;;25.02;58.81
46942;BME280;32676;52.630;4.896;2023-08-21T10:49:41;103845.97;;;25.01;58.18
46942;BME280;32676;52.630;4.896;2023-08-21T10:52:07;103880.59;;;25.09;58.66
46942;BME280;32676;52.630;4.896;2023-08-21T10:54:42;103889.47;;;25.11;58.07
46942;BME280;32676;52.630;4.896;2023-08-21T10:57:08;103868.06;;;25.08;57.66
46942;BME280;32676;52.630;4.896;2023-08-21T10:59:34;103852.88;;;25.07;57.80
46942;BME280;32676;52.630;4.896;2023-08-21T11:02:01;103839.53;;;25.04;56.75
46942;BME280;32676;52.630;4.896;2023-08-21T11:04:28;103855.41;;;25.10;57.53
46942;BME280;32676;52.630;4.896;2023-08-21T11:06:56;103874.91;;;25.15;57.85
46942;BME280;32676;52.630;4.896;2023-08-21T11:09:23;103885.53;;;25.18;57.21
46942;BME280;32676;52.630;4.896;2023-08-21T11:11:49;103889.03;;;25.20;56.10
46942;BME280;32676;52.630;4.896;2023-08-21T11:14:16;103885.41;;;25.21;55.76
46942;BME280;32676;52.630;4.896;2023-08-21T11:16:43;103868.44;;;25.19;56.68
46942;BME280;32676;52.630;4.896;2023-08-21T11:19:09;103871.94;;;25.21;56.08
46942;BME280;32676;52.630;4.896;2023-08-21T11:21:36;103864.66;;;25.23;56.54
46942;BME280;32676;52.630;4.896;2023-08-21T11:24:05;103898.53;;;25.29;56.66
46942;BME280;32676;52.630;4.896;2023-08-21T11:26:31;103879.75;;;25.27;55.77
46942;BME280;32676;52.630;4.896;2023-08-21T11:28:57;103873.41;;;25.28;55.30
46942;BME280;32676;52.630;4.896;2023-08-21T11:31:26;103856.47;;;25.26;54.59
46942;BME280;32676;52.630;4.896;2023-08-21T11:33:53;103859.16;;;25.26;55.03
46942;BME280;32676;52.630;4.896;2023-08-21T11:36:19;103854.56;;;25.28;55.58
46942;BME280;32676;52.630;4.896;2023-08-21T11:38:57;103837.63;;;25.26;55.26
46942;BME280;32676;52.630;4.896;2023-08-21T11:41:25;103832.31;;;25.25;54.85
46942;BME280;32676;52.630;4.896;2023-08-21T11:43:51;103817.97;;;25.24;54.93
46942;BME280;32676;52.630;4.896;2023-08-21T11:46:18;103824.16;;;25.26;55.53
46942;BME280;32676;52.630;4.896;2023-08-21T11:48:44;103842.81;;;25.31;55.08
46942;BME280;32676;52.630;4.896;2023-08-21T11:51:11;103838.28;;;25.32;54.26
46942;BME280;32676;52.630;4.896;2023-08-21T11:53:38;103814.19;;;25.28;54.07
46942;BME280;32676;52.630;4.896;2023-08-21T11:56:08;103802.63;;;25.26;54.49
46942;BME280;32676;52.630;4.896;2023-08-21T11:58:45;103796.38;;;25.26;55.10
46942;BME280;32676;52.630;4.896;2023-08-21T12:01:16;103757.16;;;25.20;54.84
46942;BME280;32676;52.630;4.896;2023-08-21T12:03:43;103779.38;;;25.25;55.47
46942;BME280;32676;52.630;4.896;2023-08-21T12:06:10;103766.84;;;25.24;55.22
46942;BME280;32676;52.630;4.896;2023-08-21T12:08:37;103786.34;;;25.29;55.62
46942;BME280;32676;52.630;4.896;2023-08-21T12:11:03;103792.44;;;25.33;54.96
46942;BME280;32676;52.630;4.896;2023-08-21T12:13:30;103800.47;;;25.35;55.20
46942;BME280;32676;52.630;4.896;2023-08-21T12:15:58;103794.09;;;25.36;54.77
46942;BME280;32676;52.630;4.896;2023-08-21T12:18:24;103791.41;;;25.36;54.92
46942;BME280;32676;52.630;4.896;2023-08-21T12:20:51;103768.28;;;25.32;54.66
46942;BME280;32676;52.630;4.896;2023-08-21T12:23:17;103748.66;;;25.29;54.34
46942;BME280;32676;52.630;4.896;2023-08-21T12:25:44;103771.78;;;25.34;54.36
46942;BME280;32676;52.630;4.896;2023-08-21T12:28:10;103794.84;;;25.39;54.77
46942;BME280;32676;52.630;4.896;2023-08-21T12:30:37;103801.91;;;25.42;54.90
46942;BME280;32676;52.630;4.896;2023-08-21T12:33:05;103795.66;;;25.41;54.07
46942;BME280;32676;52.630;4.896;2023-08-21T12:35:31;103783.13;;;25.40;53.78
46942;BME280;32676;52.630;4.896;2023-08-21T12:37:57;103754.63;;;25.36;53.91
46942;BME280;32676;52.630;4.896;2023-08-21T12:40:30;103723.50;;;25.31;53.49
46942;BME280;32676;52.630;4.896;2023-08-21T12:42:56;103682.47;;;25.25;54.10
46942;BME280;32676;52.630;4.896;2023-08-21T12:45:23;103681.50;;;25.26;54.69
46942;BME280;32676;52.630;4.896;2023-08-21T12:47:49;103674.38;;;25.25;54.37
46942;BME280;32676;52.630;4.896;2023-08-21T12:50:17;103673.44;;;25.26;54.16
46942;BME280;32676;52.630;4.896;2023-08-21T12:52:44;103632.69;;;25.15;54.24